Time;durP1;ratioP1;P1;durP2;ratioP2;P2;SDS_P1;SDS_P2;PMS_P1;PMS_P2;Temp;Humidity;BMP_temperature;BMP_pressure;BME280_temperature;BME280_humidity;BME280_pressure;Samples;Min_cycle;Max_cycle;Signal;HPM_P1;HPM_P2
2023/09/10 00:01:08;;;;;;;41.97;37.38;;;18.30;99.90;;;;;;4982110;28;20133;-56
2023/09/10 00:03:33;;;;;;;43.67;39.05;;;18.20;99.90;;;;;;4982835;28;20191;-56
2023/09/10 00:06:00;;;;;;;44.08;39.47;;;18.20;99.90;;;;;;4983663;28;20483;-56
2023/09/10 00:08:26;;;;;;;42.33;37.97;;;18.20;99.90;;;;;;4981806;28;20120;-56
2023/09/10 00:10:52;;;;;;;43.08;38.38;;;18.20;99.90;;;;;;4984683;28;20125;-55
2023/09/10 00:13:18;;;;;;;39.22;35.15;;;18.30;99.90;;;;;;4983527;28;20604;-55
2023/09/10 00:15:44;;;;;;;41.47;37.17;;;18.30;99.90;;;;;;4982859;28;20058;-55
2023/09/10 00:18:11;;;;;;;39.67;35.67;;;18.30;99.90;;;;;;4983287;28;20050;-54
2023/09/10 00:20:37;;;;;;;38.83;34.70;;;18.20;99.90;;;;;;4998527;28;20121;-56
2023/09/10 00:23:03;;;;;;;41.75;37.25;;;18.20;99.90;;;;;;4986589;28;20042;-56
2023/09/10 00:25:29;;;;;;;40.78;36.58;;;18.10;99.90;;;;;;5002646;28;20041;-57
2023/09/10 00:27:57;;;;;;;41.00;36.83;;;18.10;99.90;;;;;;5003719;28;20046;-56
2023/09/10 00:30:23;;;;;;;42.40;37.97;;;18.10;99.90;;;;;;5002418;28;20049;-56
2023/09/10 00:32:48;;;;;;;43.90;39.08;;;18.00;99.90;;;;;;5000736;28;20181;-56
2023/09/10 00:35:14;;;;;;;43.35;38.60;;;18.00;99.90;;;;;;5002906;28;20046;-55
2023/09/10 00:37:40;;;;;;;44.47;38.28;;;18.00;99.90;;;;;;5002635;28;20049;-56
2023/09/10 00:40:08;;;;;;;44.90;39.63;;;18.00;99.90;;;;;;5002517;28;20072;-56
2023/09/10 00:42:35;;;;;;;43.08;38.45;;;18.00;99.90;;;;;;5002614;28;20045;-56
2023/09/10 00:45:01;;;;;;;45.00;40.08;;;17.90;99.90;;;;;;5002857;28;20448;-56
2023/09/10 00:47:27;;;;;;;45.63;40.88;;;17.90;99.90;;;;;;5000460;28;20054;-56
2023/09/10 00:49:54;;;;;;;44.85;40.10;;;17.90;99.90;;;;;;5002680;28;20056;-56
2023/09/10 00:52:23;;;;;;;46.30;40.80;;;17.90;99.90;;;;;;5003748;28;20038;-57
2023/09/10 00:54:49;;;;;;;43.10;38.53;;;17.80;99.90;;;;;;5001650;28;20048;-56
2023/09/10 00:57:16;;;;;;;43.95;38.58;;;17.80;99.90;;;;;;4989814;28;20076;-55
2023/09/10 00:59:42;;;;;;;43.75;38.45;;;17.80;99.90;;;;;;5002984;28;20704;-56
2023/09/10 01:02:09;;;;;;;42.72;38.40;;;17.80;99.90;;;;;;5002186;28;20520;-56
2023/09/10 01:04:34;;;;;;;43.05;38.45;;;17.80;99.90;;;;;;4988103;28;20519;-55
2023/09/10 01:07:01;;;;;;;40.10;35.85;;;17.90;99.90;;;;;;4982758;28;20077;-56
2023/09/10 01:09:27;;;;;;;40.95;36.65;;;17.90;99.90;;;;;;4983882;28;20042;-56
2023/09/10 01:12:08;;;;;;;40.03;35.65;;;18.00;99.90;;;;;;4983248;28;20113;-56
2023/09/10 01:14:48;;;;;;;42.25;37.42;;;18.00;99.90;;;;;;4982691;28;20057;-56
2023/09/10 01:17:50;;;;;;;43.03;38.33;;;18.10;99.90;;;;;;4982538;28;20039;-56
2023/09/10 01:21:05;;;;;;;44.88;40.17;;;18.00;99.90;;;;;;4982106;28;20046;-56
2023/09/10 01:23:55;;;;;;;46.05;41.17;;;17.90;99.90;;;;;;4965583;28;20053;-56
2023/09/10 01:26:20;;;;;;;47.08;42.15;;;17.80;99.90;;;;;;4986284;28;20054;-56
2023/09/10 01:28:46;;;;;;;45.42;40.63;;;17.80;99.90;;;;;;4986865;28;20206;-55
2023/09/10 01:31:12;;;;;;;41.70;37.38;;;17.80;99.90;;;;;;4986696;28;20088;-56
2023/09/10 01:33:43;;;;;;;45.45;40.70;;;17.80;99.90;;;;;;4984997;28;20042;-56
2023/09/10 01:36:17;;;;;;;48.78;43.60;;;17.80;99.90;;;;;;4984339;28;20050;-56
2023/09/10 01:39:14;;;;;;;48.35;43.20;;;17.80;99.90;;;;;;4989536;28;20038;-56
2023/09/10 01:41:40;;;;;;;45.90;41.30;;;17.70;99.90;;;;;;4985495;28;20443;-56
2023/09/10 01:44:07;;;;;;;45.08;40.42;;;17.60;99.90;;;;;;4986686;28;20046;-56
2023/09/10 01:46:34;;;;;;;45.08;40.47;;;17.60;99.90;;;;;;4986323;28;20113;-56
2023/09/10 01:49:04;;;;;;;47.20;40.97;;;17.50;99.90;;;;;;4987136;28;20042;-55
2023/09/10 01:51:30;;;;;;;47.40;42.30;;;17.50;99.90;;;;;;4990605;28;20053;-56
2023/09/10 01:53:55;;;;;;;45.45;40.65;;;17.50;99.90;;;;;;5005603;28;20041;-55
2023/09/10 01:56:21;;;;;;;44.75;40.05;;;17.50;99.90;;;;;;5000435;28;20564;-56
2023/09/10 01:58:46;;;;;;;44.72;39.97;;;17.50;99.90;;;;;;4988446;28;20113;-56
2023/09/10 02:01:12;;;;;;;48.70;43.53;;;17.50;99.90;;;;;;4986330;28;20108;-56
2023/09/10 02:03:38;;;;;;;46.97;42.08;;;17.50;99.90;;;;;;4985484;28;20057;-56
2023/09/10 02:06:03;;;;;;;47.40;42.25;;;17.50;99.90;;;;;;4986238;28;20549;-56
2023/09/10 02:08:30;;;;;;;47.88;42.88;;;17.40;99.90;;;;;;4987485;28;20065;-56
2023/09/10 02:10:55;;;;;;;45.33;40.35;;;17.40;99.90;;;;;;4985676;28;20104;-56
2023/09/10 02:13:21;;;;;;;49.03;43.97;;;17.40;99.90;;;;;;4985769;28;20121;-55
2023/09/10 02:15:47;;;;;;;45.53;40.75;;;17.50;99.90;;;;;;4986619;28;20038;-56
2023/09/10 02:18:12;;;;;;;46.78;41.92;;;17.60;99.90;;;;;;4985661;28;20381;-55
2023/09/10 02:20:38;;;;;;;47.67;42.72;;;17.60;99.90;;;;;;4985482;28;20069;-56
2023/09/10 02:23:04;;;;;;;46.53;41.67;;;17.60;99.90;;;;;;4997336;28;20044;-55
2023/09/10 02:25:32;;;;;;;48.90;43.97;;;17.60;99.90;;;;;;5006637;28;20497;-55
2023/09/10 02:28:00;;;;;;;50.35;45.03;;;17.50;99.90;;;;;;5006112;28;20076;-57
2023/09/10 02:30:26;;;;;;;47.88;42.88;;;17.50;99.90;;;;;;5005650;28;20042;-54
2023/09/10 02:32:51;;;;;;;47.03;42.00;;;17.40;99.90;;;;;;5005189;28;20057;-56
2023/09/10 02:35:17;;;;;;;49.25;43.20;;;17.30;99.90;;;;;;5003617;28;20057;-54
2023/09/10 02:37:42;;;;;;;45.75;40.85;;;17.30;99.90;;;;;;5004537;28;20050;-56
2023/09/10 02:40:09;;;;;;;44.88;40.20;;;17.30;99.90;;;;;;5004907;28;20519;-56
2023/09/10 02:42:34;;;;;;;44.40;39.80;;;17.30;99.90;;;;;;5005055;28;20512;-55
2023/09/10 02:45:02;;;;;;;45.80;40.90;;;17.40;99.90;;;;;;5005627;28;20061;-55
2023/09/10 02:47:28;;;;;;;44.58;40.13;;;17.40;99.90;;;;;;5004333;28;20053;-54
2023/09/10 02:49:54;;;;;;;44.60;39.95;;;17.40;99.90;;;;;;5005484;28;20080;-55
2023/09/10 02:52:22;;;;;;;47.95;40.83;;;17.40;99.90;;;;;;5005787;28;20048;-56
2023/09/10 02:54:47;;;;;;;47.13;42.20;;;17.40;99.90;;;;;;5002324;28;20099;-56
2023/09/10 02:57:13;;;;;;;47.45;42.47;;;17.50;99.90;;;;;;4995560;28;20161;-56
2023/09/10 02:59:39;;;;;;;50.40;45.15;;;17.40;99.90;;;;;;4985521;28;20113;-55
2023/09/10 03:02:04;;;;;;;48.40;43.20;;;17.30;99.90;;;;;;4984887;28;20042;-57
2023/09/10 03:04:30;;;;;;;48.20;42.80;;;17.30;99.90;;;;;;4984261;28;20050;-56
2023/09/10 03:06:55;;;;;;;48.45;43.35;;;17.30;99.90;;;;;;4984992;28;20047;-56
2023/09/10 03:09:21;;;;;;;47.08;42.28;;;17.20;99.90;;;;;;4985743;28;20256;-56
2023/09/10 03:11:47;;;;;;;46.70;41.72;;;17.20;99.90;;;;;;4984984;28;20092;-56
2023/09/10 03:14:12;;;;;;;43.72;39.03;;;17.30;99.90;;;;;;4985707;28;20057;-55
2023/09/10 03:16:39;;;;;;;44.45;39.88;;;17.40;99.90;;;;;;4985301;28;20536;-56
2023/09/10 03:19:05;;;;;;;44.80;40.08;;;17.30;99.90;;;;;;4985644;28;20476;-56
2023/09/10 03:21:31;;;;;;;45.53;40.70;;;17.40;99.90;;;;;;4984669;28;20145;-56
2023/09/10 03:23:56;;;;;;;48.55;43.45;;;17.40;99.90;;;;;;4984587;28;20546;-55
2023/09/10 03:26:22;;;;;;;46.30;41.40;;;17.40;99.90;;;;;;4985014;28;20050;-55
2023/09/10 03:28:48;;;;;;;44.90;40.13;;;17.30;99.90;;;;;;4982487;28;20129;-57
2023/09/10 03:31:14;;;;;;;45.90;41.00;;;17.20;99.90;;;;;;4984867;28;20042;-56
2023/09/10 03:33:43;;;;;;;46.67;41.78;;;17.20;99.90;;;;;;4983636;28;20114;-55
2023/09/10 03:36:09;;;;;;;46.55;41.72;;;17.20;99.90;;;;;;4984440;28;20047;-56
2023/09/10 03:38:35;;;;;;;48.30;43.20;;;17.20;99.90;;;;;;4984262;28;20046;-56
2023/09/10 03:41:01;;;;;;;46.20;41.30;;;17.10;99.90;;;;;;4985152;28;20841;-54
2023/09/10 03:43:26;;;;;;;47.63;42.78;;;17.00;99.90;;;;;;4983256;28;20125;-56
2023/09/10 03:45:52;;;;;;;48.67;43.38;;;17.00;99.90;;;;;;4982606;28;20105;-56
2023/09/10 03:48:17;;;;;;;46.05;41.30;;;16.90;99.90;;;;;;4982656;28;20034;-55
2023/09/10 03:50:43;;;;;;;46.72;41.83;;;16.80;99.90;;;;;;4984442;28;20050;-56
2023/09/10 03:53:09;;;;;;;46.92;41.92;;;16.90;99.90;;;;;;4985046;28;20038;-56
2023/09/10 03:55:35;;;;;;;45.65;40.88;;;16.90;99.90;;;;;;4984909;28;20098;-56
2023/09/10 03:58:00;;;;;;;46.45;41.55;;;16.90;99.90;;;;;;4992912;28;20382;-55
2023/09/10 04:00:26;;;;;;;47.88;42.70;;;16.80;99.90;;;;;;4984802;28;20488;-56
2023/09/10 04:02:52;;;;;;;47.92;42.80;;;16.70;99.90;;;;;;4983935;28;20054;-56
2023/09/10 04:05:18;;;;;;;45.67;40.88;;;16.70;99.90;;;;;;4983987;28;20066;-56
2023/09/10 04:07:44;;;;;;;44.58;39.92;;;16.80;99.90;;;;;;4983727;28;20046;-56
2023/09/10 04:10:10;;;;;;;43.35;38.80;;;16.80;99.90;;;;;;4984297;28;20085;-56
2023/09/10 04:12:36;;;;;;;45.00;40.08;;;16.80;99.90;;;;;;4983536;28;20046;-56
2023/09/10 04:15:03;;;;;;;43.10;38.70;;;17.00;99.90;;;;;;4982737;28;20042;-56
2023/09/10 04:17:29;;;;;;;43.20;38.63;;;17.00;99.90;;;;;;4982955;28;20053;-56
2023/09/10 04:19:57;;;;;;;43.97;39.38;;;17.00;99.90;;;;;;4983822;28;20045;-55
2023/09/10 04:22:23;;;;;;;44.20;39.50;;;17.00;99.90;;;;;;4982949;28;20057;-56
2023/09/10 04:24:49;;;;;;;42.63;38.13;;;17.00;99.90;;;;;;4984565;28;20129;-56
2023/09/10 04:27:15;;;;;;;41.78;37.47;;;17.00;99.90;;;;;;4984348;28;20117;-58
2023/09/10 04:29:40;;;;;;;42.45;38.05;;;17.00;99.90;;;;;;4981905;28;20049;-56
2023/09/10 04:32:06;;;;;;;41.47;37.17;;;17.00;99.90;;;;;;4983077;28;20189;-56
2023/09/10 04:34:31;;;;;;;41.65;37.20;;;17.00;99.90;;;;;;4983391;28;20061;-56
2023/09/10 04:36:57;;;;;;;40.45;36.30;;;17.00;99.90;;;;;;4984076;28;20043;-56
2023/09/10 04:39:23;;;;;;;42.47;37.90;;;17.00;99.90;;;;;;4983444;28;20046;-55
2023/09/10 04:41:48;;;;;;;42.17;37.67;;;17.00;99.90;;;;;;4984084;28;20370;-55
2023/09/10 04:44:14;;;;;;;43.85;39.38;;;17.00;99.90;;;;;;4984069;28;20052;-55
2023/09/10 04:46:40;;;;;;;43.08;38.50;;;16.90;99.90;;;;;;4983501;28;20457;-56
2023/09/10 04:49:05;;;;;;;40.80;36.50;;;16.90;99.90;;;;;;4984893;28;20370;-56
2023/09/10 04:51:31;;;;;;;43.38;38.78;;;16.90;99.90;;;;;;4984291;28;20047;-55
2023/09/10 04:53:57;;;;;;;45.05;40.20;;;16.90;99.90;;;;;;4983658;28;20042;-56
2023/09/10 04:56:22;;;;;;;43.00;38.42;;;16.80;99.90;;;;;;4991827;28;20042;-55
2023/09/10 04:58:48;;;;;;;44.40;39.60;;;16.80;99.90;;;;;;5000890;28;20049;-56
2023/09/10 05:01:14;;;;;;;41.85;37.45;;;16.70;99.90;;;;;;4986970;28;20042;-54
2023/09/10 05:03:41;;;;;;;42.40;38.03;;;16.70;99.90;;;;;;4987565;28;20038;-57
2023/09/10 05:06:07;;;;;;;43.95;39.35;;;16.70;99.90;;;;;;4986898;28;20062;-55
2023/09/10 05:08:34;;;;;;;42.80;38.42;;;16.70;99.90;;;;;;4985937;28;20050;-56
2023/09/10 05:11:00;;;;;;;42.20;37.75;;;16.70;99.90;;;;;;4987463;28;20129;-56
2023/09/10 05:13:25;;;;;;;42.22;37.95;;;16.80;99.90;;;;;;4986496;28;20424;-56
2023/09/10 05:15:54;;;;;;;43.80;39.28;;;16.80;99.90;;;;;;4987297;28;20053;-55
2023/09/10 05:18:20;;;;;;;44.30;39.60;;;16.80;99.90;;;;;;4987444;28;20412;-55
2023/09/10 05:20:48;;;;;;;42.38;37.90;;;16.80;99.90;;;;;;4986411;28;20440;-55
2023/09/10 05:23:13;;;;;;;44.38;39.78;;;17.00;99.90;;;;;;4986695;28;20743;-55
2023/09/10 05:25:39;;;;;;;44.20;39.67;;;17.00;99.90;;;;;;4987272;28;20046;-56
2023/09/10 05:28:05;;;;;;;43.10;38.50;;;17.00;99.90;;;;;;4987666;28;20034;-56
2023/09/10 05:30:31;;;;;;;46.47;41.40;;;17.00;99.90;;;;;;4986867;28;20085;-56
2023/09/10 05:32:57;;;;;;;48.55;43.33;;;17.10;99.90;;;;;;4987850;28;20053;-57
2023/09/10 05:35:23;;;;;;;51.90;45.67;;;17.00;99.90;;;;;;5000070;28;20678;-56
2023/09/10 05:37:49;;;;;;;49.88;44.55;;;17.00;99.90;;;;;;5001425;28;20170;-56
2023/09/10 05:40:14;;;;;;;51.08;45.67;;;17.00;99.90;;;;;;4986462;28;20390;-56
2023/09/10 05:42:40;;;;;;;52.17;46.70;;;17.10;99.90;;;;;;4987152;28;20611;-56
2023/09/10 05:45:06;;;;;;;49.45;44.25;;;17.10;99.90;;;;;;4986593;28;20323;-56
2023/09/10 05:47:32;;;;;;;48.97;43.85;;;17.20;99.90;;;;;;4985440;28;20038;-57
2023/09/10 05:50:00;;;;;;;47.78;42.78;;;17.20;99.90;;;;;;4986253;28;20053;-56
2023/09/10 05:52:25;;;;;;;47.90;42.72;;;17.30;99.90;;;;;;4984108;28;20134;-56
2023/09/10 05:54:51;;;;;;;49.85;44.58;;;17.40;99.90;;;;;;4986589;28;20132;-55
2023/09/10 05:57:17;;;;;;;49.25;43.92;;;17.50;99.90;;;;;;4992939;28;20579;-56
2023/09/10 05:59:42;;;;;;;50.22;44.92;;;17.60;99.90;;;;;;4986659;28;20141;-56
2023/09/10 06:02:08;;;;;;;54.92;48.28;;;17.60;99.90;;;;;;4985793;28;20133;-56
2023/09/10 06:04:34;;;;;;;52.10;46.35;;;17.70;99.90;;;;;;4985359;28;20113;-56
2023/09/10 06:07:04;;;;;;;56.08;50.22;;;17.80;99.90;;;;;;5000999;28;20085;-56
2023/09/10 06:09:31;;;;;;;56.53;50.47;;;17.80;99.90;;;;;;4985590;28;20042;-56
2023/09/10 06:11:57;;;;;;;60.15;53.65;;;17.90;99.90;;;;;;4986444;28;20038;-55
2023/09/10 06:14:23;;;;;;;60.72;54.33;;;18.00;99.90;;;;;;4985507;28;20050;-56
2023/09/10 06:16:50;;;;;;;60.28;53.80;;;18.10;99.90;;;;;;4983987;28;20069;-55
2023/09/10 06:19:15;;;;;;;59.42;53.15;;;18.10;99.90;;;;;;4985944;28;20069;-56
2023/09/10 06:21:42;;;;;;;58.47;52.28;;;18.20;99.90;;;;;;4985360;28;20047;-56
2023/09/10 06:24:07;;;;;;;59.13;52.88;;;18.20;99.90;;;;;;4985836;28;20050;-56
2023/09/10 06:26:34;;;;;;;59.03;52.83;;;18.30;99.90;;;;;;4986206;28;20501;-56
2023/09/10 06:29:00;;;;;;;60.03;53.83;;;18.40;99.90;;;;;;4986109;28;20401;-56
2023/09/10 06:31:25;;;;;;;64.88;56.95;;;18.40;99.90;;;;;;4984435;28;20096;-56
2023/09/10 06:33:53;;;;;;;60.95;53.40;;;18.50;99.90;;;;;;4984744;28;20042;-56
2023/09/10 06:36:19;;;;;;;59.28;52.90;;;18.60;99.90;;;;;;4986897;28;20043;-55
2023/09/10 06:38:47;;;;;;;57.05;51.25;;;18.60;99.90;;;;;;4985207;28;20405;-55
2023/09/10 06:41:17;;;;;;;58.45;52.30;;;18.70;99.90;;;;;;4986087;28;20050;-55
2023/09/10 06:43:43;;;;;;;54.30;48.67;;;19.00;99.90;;;;;;4985595;28;20057;-56
2023/09/10 06:46:10;;;;;;;54.67;48.97;;;19.60;99.90;;;;;;4985149;28;20145;-56
2023/09/10 06:48:35;;;;;;;53.20;47.78;;;20.00;99.90;;;;;;4985513;28;20042;-56
2023/09/10 06:51:02;;;;;;;50.30;45.03;;;20.40;99.90;;;;;;4986129;28;20046;-56
2023/09/10 06:53:28;;;;;;;49.42;44.22;;;20.80;99.90;;;;;;4985311;28;20043;-55
2023/09/10 06:55:54;;;;;;;49.17;44.00;;;21.10;99.90;;;;;;4989325;28;20130;-56
2023/09/10 06:58:20;;;;;;;49.28;43.38;;;21.50;99.90;;;;;;4989867;28;20046;-56
2023/09/10 07:00:46;;;;;;;47.60;42.63;;;21.90;99.90;;;;;;4985378;28;20051;-56
2023/09/10 07:03:13;;;;;;;45.92;40.72;;;22.20;99.90;;;;;;4985189;28;20063;-54
2023/09/10 07:05:40;;;;;;;45.47;40.72;;;22.50;99.90;;;;;;4984794;28;20050;-55
2023/09/10 07:08:07;;;;;;;45.60;40.88;;;22.70;99.90;;;;;;4984180;28;20062;-56
2023/09/10 07:10:33;;;;;;;43.38;38.97;;;22.90;99.90;;;;;;4985283;28;20038;-56
2023/09/10 07:13:01;;;;;;;41.38;36.97;;;23.10;99.90;;;;;;4984607;28;20054;-56
2023/09/10 07:15:27;;;;;;;43.25;38.50;;;23.30;99.90;;;;;;4985925;28;20105;-57
2023/09/10 07:17:52;;;;;;;42.28;37.90;;;23.30;99.90;;;;;;4984834;28;20366;-56
2023/09/10 07:20:18;;;;;;;40.00;35.92;;;23.20;99.90;;;;;;4994977;28;20045;-58
2023/09/10 07:22:43;;;;;;;39.95;36.00;;;23.10;99.90;;;;;;4984598;28;20086;-56
2023/09/10 07:25:09;;;;;;;38.22;34.45;;;23.30;99.90;;;;;;4984544;28;20053;-56
2023/09/10 07:27:35;;;;;;;40.42;36.22;;;23.50;99.90;;;;;;4985261;28;20453;-56
2023/09/10 07:30:01;;;;;;;39.42;35.45;;;23.70;99.90;;;;;;4995451;28;20054;-56
2023/09/10 07:32:27;;;;;;;39.58;35.55;;;23.50;99.90;;;;;;4994661;28;20404;-56
2023/09/10 07:34:53;;;;;;;39.28;35.10;;;23.20;99.90;;;;;;4990084;28;20054;-55
2023/09/10 07:37:19;;;;;;;39.33;35.38;;;22.80;99.90;;;;;;5001657;28;20399;-56
2023/09/10 07:39:44;;;;;;;37.10;33.40;;;22.50;99.90;;;;;;4999923;28;20042;-55
2023/09/10 07:42:10;;;;;;;38.55;34.55;;;22.10;99.90;;;;;;4994569;28;20129;-53
2023/09/10 07:44:35;;;;;;;37.72;33.92;;;22.00;99.90;;;;;;4984026;28;20038;-56
2023/09/10 07:47:01;;;;;;;38.70;34.65;;;21.80;99.90;;;;;;4997917;28;20057;-57
2023/09/10 07:49:28;;;;;;;38.40;34.53;;;21.70;99.90;;;;;;5003435;28;20088;-56
2023/09/10 07:51:53;;;;;;;38.10;34.20;;;21.60;99.90;;;;;;5000376;28;20061;-56
2023/09/10 07:54:19;;;;;;;39.50;35.35;;;21.60;99.90;;;;;;4984644;28;20042;-56
2023/09/10 07:56:45;;;;;;;37.42;33.47;;;21.60;99.90;;;;;;4993980;28;20096;-56
2023/09/10 07:59:12;;;;;;;36.47;32.88;;;21.60;99.90;;;;;;4983823;28;20049;-56
2023/09/10 08:01:38;;;;;;;36.83;33.13;;;21.70;99.90;;;;;;4987280;28;20046;-55
2023/09/10 08:04:04;;;;;;;37.22;32.58;;;21.80;99.90;;;;;;4990222;28;20108;-57
2023/09/10 08:06:30;;;;;;;35.08;31.52;;;21.90;99.90;;;;;;5003092;28;20068;-56
2023/09/10 08:08:56;;;;;;;36.25;32.53;;;22.00;99.90;;;;;;4996590;28;20042;-56
2023/09/10 08:11:21;;;;;;;38.45;34.63;;;22.10;99.90;;;;;;4983561;28;20042;-56
2023/09/10 08:13:47;;;;;;;40.13;36.22;;;22.30;99.90;;;;;;4983212;28;20046;-55
2023/09/10 08:16:14;;;;;;;40.35;36.33;;;22.40;99.90;;;;;;4983352;28;20046;-56
2023/09/10 08:18:41;;;;;;;43.20;38.72;;;22.50;99.90;;;;;;4984148;28;20445;-56
2023/09/10 08:21:07;;;;;;;41.40;37.35;;;22.60;99.90;;;;;;4983911;28;20868;-56
2023/09/10 08:23:32;;;;;;;41.20;37.00;;;22.70;99.90;;;;;;4981489;28;20046;-56
2023/09/10 08:25:58;;;;;;;35.80;32.03;;;22.70;99.90;;;;;;4984127;28;20092;-56
2023/09/10 08:28:23;;;;;;;38.88;34.22;;;22.80;99.90;;;;;;4983775;28;20104;-56
2023/09/10 08:30:51;;;;;;;39.20;35.00;;;22.90;99.90;;;;;;4999838;28;20349;-55
2023/09/10 08:33:17;;;;;;;39.88;33.60;;;22.90;99.90;;;;;;4985598;28;20665;-56
2023/09/10 08:35:47;;;;;;;37.33;33.47;;;23.00;99.90;;;;;;4984076;28;20125;-56
2023/09/10 08:38:14;;;;;;;34.80;31.45;;;23.10;99.90;;;;;;4986544;28;20038;-58
2023/09/10 08:40:57;;;;;;;34.08;30.40;;;23.20;99.90;;;;;;4985126;28;21205;-56
2023/09/10 08:43:39;;;;;;;30.80;27.63;;;23.30;99.90;;;;;;4989081;28;20038;-56
2023/09/10 08:46:08;;;;;;;28.02;25.23;;;23.30;99.90;;;;;;4994620;28;20291;-57
2023/09/10 08:48:37;;;;;;;29.58;26.67;;;23.40;99.90;;;;;;4987435;28;20469;-57
2023/09/10 08:51:03;;;;;;;25.27;22.70;;;23.40;99.90;;;;;;4988704;28;20061;-57
2023/09/10 08:53:29;;;;;;;28.25;25.25;;;23.40;99.90;;;;;;5002866;28;20041;-57
2023/09/10 08:55:55;;;;;;;25.80;23.20;;;23.40;99.90;;;;;;4995546;28;20097;-56
2023/09/10 08:58:22;;;;;;;26.80;23.38;;;23.80;99.90;;;;;;4989567;28;20042;-58
2023/09/10 09:00:50;;;;;;;26.70;24.02;;;24.30;99.90;;;;;;4987090;28;20124;-57
2023/09/10 09:03:16;;;;;;;30.05;25.75;;;24.70;99.90;;;;;;4992528;28;20058;-58
2023/09/10 09:05:45;;;;;;;24.40;22.00;;;25.10;99.90;;;;;;4996737;28;20046;-57
2023/09/10 09:08:17;;;;;;;24.17;21.58;;;25.50;99.90;;;;;;5002094;28;20050;-57
2023/09/10 09:10:44;;;;;;;23.73;21.23;;;25.80;99.90;;;;;;5002567;28;20040;-58
2023/09/10 09:13:12;;;;;;;21.77;19.58;;;26.10;99.90;;;;;;5000654;28;20132;-57
2023/09/10 09:15:39;;;;;;;23.17;17.73;;;26.40;99.80;;;;;;5001979;28;20458;-58
2023/09/10 09:18:07;;;;;;;21.98;19.73;;;26.60;99.40;;;;;;5002610;28;20563;-57
2023/09/10 09:20:34;;;;;;;20.83;18.73;;;26.80;99.10;;;;;;5002553;28;20490;-58
2023/09/10 09:23:24;;;;;;;21.95;18.15;;;26.90;99.00;;;;;;5001875;28;20037;-57
2023/09/10 09:25:51;;;;;;;22.17;19.58;;;27.10;99.10;;;;;;5002745;28;20052;-57
2023/09/10 09:28:18;;;;;;;21.13;19.13;;;27.30;98.70;;;;;;5003361;28;20486;-57
2023/09/10 09:30:44;;;;;;;23.55;21.05;;;27.40;98.30;;;;;;5001352;28;20139;-57
2023/09/10 09:33:09;;;;;;;21.50;19.30;;;27.20;97.80;;;;;;5000318;28;20042;-57
2023/09/10 09:35:35;;;;;;;22.52;20.20;;;27.00;98.20;;;;;;4993347;28;20606;-58
2023/09/10 09:38:05;;;;;;;20.83;18.33;;;27.10;98.70;;;;;;4982631;28;20047;-58
2023/09/10 09:40:33;;;;;;;25.30;20.90;;;27.40;98.20;;;;;;4982179;28;20101;-57
2023/09/10 09:43:01;;;;;;;23.45;18.27;;;27.30;97.40;;;;;;4982931;28;20058;-57
2023/09/10 09:45:26;;;;;;;17.35;15.65;;;27.10;97.70;;;;;;4983735;28;20061;-56
2023/09/10 09:47:53;;;;;;;19.85;17.83;;;27.20;98.50;;;;;;4985426;28;20102;-58
2023/09/10 09:50:19;;;;;;;21.20;18.80;;;27.60;98.50;;;;;;4994877;28;20053;-57
2023/09/10 09:52:51;;;;;;;19.42;17.52;;;27.60;97.60;;;;;;4987116;28;20049;-58
2023/09/10 09:55:17;;;;;;;20.88;18.67;;;27.60;98.10;;;;;;4992538;28;20073;-58
2023/09/10 09:57:46;;;;;;;22.23;19.98;;;27.90;97.50;;;;;;4994595;28;20074;-58
2023/09/10 10:00:12;;;;;;;19.42;16.33;;;27.80;97.10;;;;;;4993834;28;20551;-58
2023/09/10 10:02:38;;;;;;;18.67;16.50;;;27.70;97.40;;;;;;5004253;28;20503;-57
2023/09/10 10:05:04;;;;;;;18.95;16.95;;;27.70;97.60;;;;;;5003577;28;20056;-58
2023/09/10 10:07:30;;;;;;;21.65;19.33;;;27.60;97.40;;;;;;5004863;28;20049;-57
2023/09/10 10:09:58;;;;;;;24.88;20.63;;;27.50;96.80;;;;;;5003396;28;20049;-58
2023/09/10 10:12:25;;;;;;;18.92;16.92;;;27.40;97.20;;;;;;5004450;28;20037;-58
2023/09/10 10:14:53;;;;;;;20.02;17.95;;;27.40;97.50;;;;;;5005147;28;20057;-57
2023/09/10 10:17:20;;;;;;;21.15;18.95;;;27.50;97.30;;;;;;5004607;28;20117;-58
2023/09/10 10:19:47;;;;;;;20.55;18.45;;;27.60;97.40;;;;;;5001757;28;20056;-58
2023/09/10 10:22:14;;;;;;;19.10;17.20;;;27.80;97.50;;;;;;4995979;28;20068;-58
2023/09/10 10:24:41;;;;;;;23.13;20.63;;;28.00;97.30;;;;;;5004906;28;20120;-59
2023/09/10 10:27:07;;;;;;;21.02;18.77;;;28.10;97.00;;;;;;5005433;28;20052;-57
2023/09/10 10:29:34;;;;;;;21.80;17.02;;;28.10;97.10;;;;;;5003245;28;20065;-58
2023/09/10 10:32:32;;;;;;;21.38;19.05;;;28.30;97.40;;;;;;5004831;28;20558;-58
2023/09/10 10:35:03;;;;;;;21.35;18.67;;;28.70;96.60;;;;;;5003878;28;20042;-58
2023/09/10 10:37:32;;;;;;;21.35;19.15;;;28.70;95.90;;;;;;5004588;28;20181;-58
2023/09/10 10:40:09;;;;;;;22.02;19.50;;;28.50;96.30;;;;;;5004648;28;20054;-58
2023/09/10 10:42:47;;;;;;;17.33;15.50;;;28.60;96.40;;;;;;5004460;28;20594;-58
2023/09/10 10:45:17;;;;;;;19.48;16.70;;;28.70;96.50;;;;;;5003779;28;20046;-58
2023/09/10 10:47:45;;;;;;;18.73;15.35;;;29.00;96.60;;;;;;5004323;28;20049;-58
2023/09/10 10:50:12;;;;;;;20.27;17.85;;;29.30;96.30;;;;;;4985914;28;20045;-58
2023/09/10 10:52:59;;;;;;;21.05;15.18;;;29.30;95.80;;;;;;4993885;28;20096;-58
2023/09/10 10:55:27;;;;;;;22.88;19.17;;;29.30;96.20;;;;;;4999994;28;20136;-60
2023/09/10 10:57:54;;;;;;;16.70;14.65;;;29.30;95.30;;;;;;4991746;28;20038;-57
2023/09/10 11:00:21;;;;;;;19.83;15.13;;;29.20;95.80;;;;;;5003859;28;20096;-58
2023/09/10 11:03:11;;;;;;;18.17;15.60;;;29.30;96.00;;;;;;4989913;28;20042;-58
2023/09/10 11:05:54;;;;;;;15.77;13.45;;;29.50;95.80;;;;;;4999208;28;20111;-57
2023/09/10 11:08:38;;;;;;;19.08;15.00;;;29.70;95.70;;;;;;5003800;28;20049;-57
2023/09/10 11:11:33;;;;;;;15.13;13.55;;;29.60;95.30;;;;;;5004534;28;20050;-57
2023/09/10 11:14:00;;;;;;;13.60;12.15;;;29.50;95.20;;;;;;5004103;28;20095;-57
2023/09/10 11:16:29;;;;;;;15.70;11.48;;;29.50;95.10;;;;;;5004025;28;20046;-58
2023/09/10 11:18:55;;;;;;;14.07;12.20;;;29.50;95.20;;;;;;5003556;28;20057;-58
2023/09/10 11:21:20;;;;;;;16.45;10.88;;;29.70;95.30;;;;;;5004518;28;20045;-58
2023/09/10 11:23:46;;;;;;;14.02;12.45;;;30.00;95.30;;;;;;5004082;28;20611;-58
2023/09/10 11:26:14;;;;;;;14.30;12.68;;;30.20;95.20;;;;;;5002774;28;20081;-58
2023/09/10 11:28:45;;;;;;;15.80;12.00;;;30.30;94.40;;;;;;5004358;28;20188;-58
2023/09/10 11:31:36;;;;;;;18.13;12.30;;;30.20;94.70;;;;;;5003769;28;20108;-56
2023/09/10 11:34:22;;;;;;;14.18;12.68;;;30.20;94.70;;;;;;5003700;28;20046;-58
2023/09/10 11:36:51;;;;;;;19.45;12.05;;;30.30;94.40;;;;;;5003809;28;20116;-56
2023/09/10 11:39:19;;;;;;;13.90;10.70;;;30.40;94.80;;;;;;5001953;28;20057;-58
2023/09/10 11:41:50;;;;;;;13.68;10.18;;;30.40;94.70;;;;;;5004691;28;20069;-56
2023/09/10 11:44:16;;;;;;;15.75;11.43;;;30.30;94.80;;;;;;5003981;28;20045;-58
2023/09/10 11:46:41;;;;;;;17.00;11.65;;;30.30;94.30;;;;;;5002530;28;20049;-57
2023/09/10 11:49:07;;;;;;;13.38;11.23;;;30.30;94.90;;;;;;5004213;28;20061;-57
2023/09/10 11:51:44;;;;;;;16.30;11.80;;;30.40;95.00;;;;;;5001660;28;20038;-56
2023/09/10 11:54:16;;;;;;;17.00;13.50;;;30.50;94.70;;;;;;4996564;28;20049;-55
2023/09/10 11:56:52;;;;;;;14.77;11.93;;;30.70;94.80;;;;;;4996622;28;20075;-55
2023/09/10 11:59:23;;;;;;;17.10;11.52;;;30.70;94.30;;;;;;4984625;28;20129;-56
2023/09/10 12:01:49;;;;;;;12.60;11.43;;;30.70;94.80;;;;;;5002668;28;20125;-56
2023/09/10 12:04:16;;;;;;;13.82;12.23;;;30.50;94.80;;;;;;5004069;28;20453;-55
2023/09/10 12:06:43;;;;;;;15.02;11.55;;;30.30;94.80;;;;;;5001573;28;20061;-56
2023/09/10 12:09:08;;;;;;;13.73;11.15;;;30.30;94.90;;;;;;5001463;28;20050;-55
2023/09/10 12:11:36;;;;;;;13.00;10.15;;;30.10;94.90;;;;;;5001973;28;20045;-56
2023/09/10 12:14:02;;;;;;;15.82;10.13;;;30.00;95.00;;;;;;5000718;28;20124;-57
2023/09/10 12:16:28;;;;;;;17.27;9.43;;;30.00;95.00;;;;;;4997830;28;20049;-56
2023/09/10 12:18:54;;;;;;;19.30;10.50;;;30.10;95.30;;;;;;4992670;28;20054;-57
2023/09/10 12:21:20;;;;;;;13.20;9.85;;;30.30;95.40;;;;;;4988679;28;20085;-57
2023/09/10 12:23:46;;;;;;;16.95;11.65;;;30.40;95.00;;;;;;4991680;28;20077;-57
2023/09/10 12:26:12;;;;;;;13.80;10.52;;;30.40;94.80;;;;;;4993965;28;20037;-56
2023/09/10 12:28:38;;;;;;;15.45;12.57;;;30.30;94.90;;;;;;4993425;28;20042;-55
2023/09/10 12:31:04;;;;;;;16.92;12.10;;;30.20;94.80;;;;;;4997245;28;20140;-57